createdAt,value
2023-05-31T00:01:32.687Z,16.52
2023-05-31T00:04:35.876Z,16.50
2023-05-31T00:07:38.804Z,16.32
2023-05-31T00:10:42.080Z,16.20
2023-05-31T00:13:45.278Z,16.17
2023-05-31T00:17:15.619Z,15.97
2023-05-31T00:20:11.665Z,15.89
2023-05-31T00:23:16.221Z,15.79
2023-05-31T00:26:19.221Z,15.69
2023-05-31T00:29:23.425Z,15.75
2023-05-31T00:32:26.371Z,15.71
2023-05-31T00:35:29.737Z,15.70
2023-05-31T00:38:32.717Z,15.54
2023-05-31T00:41:35.988Z,15.43
2023-05-31T00:44:39.175Z,15.52
2023-05-31T00:47:43.028Z,15.44
2023-05-31T00:50:46.082Z,15.40
2023-05-31T00:53:49.483Z,15.18
2023-05-31T00:56:53.253Z,15.37
2023-05-31T00:59:56.824Z,15.40
2023-05-31T01:03:03.851Z,15.65
2023-05-31T01:06:08.759Z,15.83
2023-05-31T01:09:11.788Z,15.83
2023-05-31T01:12:37.398Z,15.74
2023-05-31T01:15:48.168Z,15.58
2023-05-31T01:19:03.170Z,15.77
2023-05-31T01:22:18.367Z,15.79
2023-05-31T01:25:39.323Z,15.63
2023-05-31T01:28:43.292Z,15.79
2023-05-31T01:31:47.411Z,15.84
2023-05-31T01:34:51.864Z,15.76
2023-05-31T01:37:55.266Z,15.20
2023-05-31T01:40:59.678Z,14.86
2023-05-31T01:44:03.894Z,14.55
2023-05-31T01:47:10.499Z,14.32
2023-05-31T01:50:14.577Z,14.37
2023-05-31T01:53:17.702Z,14.30
2023-05-31T01:56:22.250Z,14.43
2023-05-31T01:59:26.705Z,14.41
2023-05-31T02:02:30.312Z,14.38
2023-05-31T02:05:33.650Z,14.58
2023-05-31T02:08:36.736Z,14.61
2023-05-31T02:11:39.965Z,14.93
2023-05-31T02:14:42.967Z,15.06
2023-05-31T02:17:52.244Z,15.29
2023-05-31T02:20:56.046Z,15.36
2023-05-31T02:23:59.469Z,15.42
2023-05-31T02:27:02.979Z,15.49
2023-05-31T02:30:08.183Z,15.70
2023-05-31T02:33:13.019Z,15.87
2023-05-31T02:36:16.163Z,15.99
2023-05-31T02:39:20.081Z,16.06
2023-05-31T02:42:24.570Z,16.21
2023-05-31T02:45:27.584Z,16.33
2023-05-31T02:48:31.427Z,16.39
2023-05-31T02:51:34.438Z,16.45
2023-05-31T02:54:39.244Z,16.53
2023-05-31T02:57:44.635Z,16.57
2023-05-31T03:00:48.198Z,16.60
2023-05-31T03:03:51.410Z,16.64
2023-05-31T03:06:55.193Z,16.71
2023-05-31T03:09:58.525Z,16.73
2023-05-31T03:13:02.649Z,16.84
2023-05-31T03:16:06.145Z,16.94
2023-05-31T03:19:09.520Z,16.99
2023-05-31T03:22:12.504Z,17.01
2023-05-31T03:25:16.836Z,17.07
2023-05-31T03:28:19.636Z,17.09
2023-05-31T03:31:24.114Z,17.10
2023-05-31T03:34:27.165Z,17.16
2023-05-31T03:37:30.754Z,17.25
2023-05-31T03:40:33.974Z,17.21
2023-05-31T03:43:37.438Z,17.22
2023-05-31T03:46:41.218Z,17.19
2023-05-31T03:49:44.458Z,17.35
2023-05-31T03:52:47.570Z,17.31
2023-05-31T03:55:50.762Z,17.35
2023-05-31T03:58:53.797Z,17.36
2023-05-31T04:01:57.176Z,17.37
2023-05-31T04:05:02.007Z,17.39
2023-05-31T04:08:06.236Z,17.44
2023-05-31T04:11:11.064Z,17.54
2023-05-31T04:14:14.324Z,17.53
2023-05-31T04:17:18.300Z,17.57
2023-05-31T04:20:21.229Z,17.68
2023-05-31T04:23:25.186Z,17.67
2023-05-31T04:26:30.240Z,17.68
2023-05-31T04:29:33.932Z,17.71
2023-05-31T04:32:37.912Z,17.78
2023-05-31T04:35:41.737Z,17.80
2023-05-31T04:38:45.619Z,17.77
2023-05-31T04:41:50.041Z,17.83
2023-05-31T04:44:59.158Z,17.96
2023-05-31T04:48:03.442Z,17.88
2023-05-31T04:51:07.050Z,17.99
2023-05-31T04:54:10.741Z,18.15
2023-05-31T04:57:14.219Z,18.20
2023-05-31T05:00:20.638Z,18.32
2023-05-31T05:03:24.724Z,18.45
2023-05-31T05:06:29.181Z,18.38
2023-05-31T05:09:32.341Z,18.58
2023-05-31T05:12:35.703Z,18.55
2023-05-31T05:15:38.735Z,18.60
2023-05-31T05:18:43.296Z,18.75
2023-05-31T05:21:47.110Z,18.69
2023-05-31T05:24:51.642Z,18.68
2023-05-31T05:27:55.813Z,18.86
2023-05-31T05:31:01.896Z,18.89
2023-05-31T05:34:06.112Z,19.04
2023-05-31T05:37:09.573Z,19.04
2023-05-31T05:40:13.148Z,19.15
2023-05-31T05:43:16.817Z,19.15
2023-05-31T05:46:20.850Z,18.97
2023-05-31T05:49:24.173Z,18.87
2023-05-31T05:52:27.143Z,18.87
2023-05-31T05:55:31.410Z,18.97
2023-05-31T05:58:34.483Z,19.11
2023-05-31T06:01:42.032Z,19.06
2023-05-31T06:04:46.064Z,19.09
2023-05-31T06:07:49.192Z,19.08
2023-05-31T06:10:52.450Z,19.40
2023-05-31T06:13:57.648Z,19.70
2023-05-31T06:17:01.379Z,19.88
2023-05-31T06:20:10.108Z,19.86
2023-05-31T06:23:13.431Z,19.96
2023-05-31T06:26:16.819Z,20.02
2023-05-31T06:29:20.140Z,19.84
2023-05-31T06:32:27.671Z,19.84
2023-05-31T06:35:33.556Z,20.16
2023-05-31T06:38:40.284Z,20.22
2023-05-31T06:41:45.009Z,20.25
2023-05-31T06:44:56.923Z,20.60
2023-05-31T06:48:01.302Z,20.75
2023-05-31T06:51:07.661Z,21.00
2023-05-31T06:54:17.787Z,21.13
2023-05-31T06:57:21.776Z,20.74
2023-05-31T07:00:25.361Z,21.04
2023-05-31T07:03:28.374Z,21.09
2023-05-31T07:06:37.345Z,21.00
2023-05-31T07:09:40.485Z,21.07
2023-05-31T07:12:44.181Z,21.03
2023-05-31T07:15:47.164Z,20.69
2023-05-31T07:18:50.518Z,20.73
2023-05-31T07:21:54.288Z,20.75
2023-05-31T07:24:59.600Z,20.92
2023-05-31T07:28:02.554Z,21.05
2023-05-31T07:31:05.806Z,21.24
2023-05-31T07:34:10.633Z,21.24
2023-05-31T07:37:13.906Z,21.50
2023-05-31T07:40:17.200Z,21.71
2023-05-31T07:43:22.776Z,21.65
2023-05-31T07:46:25.977Z,21.58
2023-05-31T07:49:30.247Z,21.76
2023-05-31T07:52:34.667Z,21.93
2023-05-31T07:55:38.599Z,22.04
2023-05-31T07:58:41.608Z,21.98
2023-05-31T08:01:45.060Z,21.90
2023-05-31T08:04:48.312Z,21.94
2023-05-31T08:07:52.529Z,22.03
2023-05-31T08:10:56.885Z,22.11
2023-05-31T08:13:59.862Z,22.42
2023-05-31T08:17:04.376Z,22.38
2023-05-31T08:20:08.271Z,22.39
2023-05-31T08:23:21.829Z,22.55
2023-05-31T08:26:26.895Z,22.51
2023-05-31T08:29:31.649Z,22.57
2023-05-31T08:32:34.481Z,22.73
2023-05-31T08:35:38.049Z,22.80
2023-05-31T08:38:41.033Z,22.83
2023-05-31T08:42:07.248Z,22.96
2023-05-31T08:45:11.710Z,22.80
2023-05-31T08:48:32.137Z,23.03
2023-05-31T08:51:38.216Z,23.11
2023-05-31T08:54:43.470Z,23.12
2023-05-31T08:57:47.979Z,23.15
2023-05-31T09:00:51.415Z,23.25
2023-05-31T09:03:54.900Z,23.31
2023-05-31T09:06:58.231Z,23.45
2023-05-31T09:10:04.235Z,23.69
2023-05-31T09:13:08.018Z,23.70
2023-05-31T09:16:11.755Z,23.53
2023-05-31T09:19:14.996Z,23.73
2023-05-31T09:22:17.905Z,23.55
2023-05-31T09:25:21.292Z,23.98
2023-05-31T09:28:24.309Z,23.83
2023-05-31T09:31:28.702Z,24.01
2023-05-31T09:34:31.780Z,24.23
2023-05-31T09:37:34.943Z,24.12
2023-05-31T09:40:37.903Z,24.29
2023-05-31T09:43:46.396Z,24.23
2023-05-31T09:46:49.306Z,24.33
2023-05-31T09:49:57.079Z,24.31
2023-05-31T09:53:00.207Z,24.53
2023-05-31T09:56:09.914Z,24.65
2023-05-31T09:59:14.201Z,24.62
2023-05-31T10:02:17.478Z,24.65
2023-05-31T10:05:22.162Z,24.72
2023-05-31T10:08:26.413Z,24.79
2023-05-31T10:11:36.265Z,25.21
2023-05-31T10:14:42.702Z,25.20
2023-05-31T10:17:56.828Z,25.43
2023-05-31T10:21:14.503Z,25.32
2023-05-31T10:24:27.982Z,25.47
2023-05-31T10:27:38.666Z,25.40
2023-05-31T10:30:42.352Z,25.16
2023-05-31T10:33:50.281Z,25.60
2023-05-31T10:36:55.107Z,25.87
2023-05-31T10:40:19.089Z,26.02
2023-05-31T10:43:38.926Z,26.09
2023-05-31T10:46:42.722Z,26.23
2023-05-31T10:49:46.546Z,25.84
2023-05-31T10:52:51.510Z,26.17
2023-05-31T10:56:02.645Z,26.43
2023-05-31T10:59:11.587Z,26.10
2023-05-31T11:02:16.237Z,26.60
2023-05-31T11:05:23.573Z,26.23
2023-05-31T11:08:28.281Z,25.94
2023-05-31T11:11:34.229Z,26.45
2023-05-31T11:14:37.439Z,26.74
2023-05-31T11:17:43.914Z,27.30
2023-05-31T11:20:47.462Z,27.64
2023-05-31T11:23:55.807Z,27.87
2023-05-31T11:27:00.804Z,27.34
2023-05-31T11:30:07.831Z,27.95
2023-05-31T11:33:20.174Z,28.19
2023-05-31T11:36:24.244Z,26.75
2023-05-31T11:39:27.658Z,27.06
2023-05-31T11:42:36.280Z,26.93
2023-05-31T11:45:42.183Z,27.87
2023-05-31T11:48:47.230Z,28.50
2023-05-31T11:51:50.675Z,28.75
2023-05-31T11:54:56.112Z,28.87
2023-05-31T11:58:00.298Z,28.94
2023-05-31T12:01:03.738Z,28.89
2023-05-31T12:04:07.643Z,29.41
2023-05-31T12:07:11.362Z,28.96
2023-05-31T12:10:14.852Z,29.33
2023-05-31T12:13:18.926Z,29.79
2023-05-31T12:16:23.486Z,30.04
2023-05-31T12:19:26.444Z,28.44
2023-05-31T12:22:30.892Z,28.38
2023-05-31T12:25:33.490Z,29.26
2023-05-31T12:28:36.470Z,29.75
2023-05-31T12:31:43.848Z,29.60
2023-05-31T12:34:54.764Z,30.16
2023-05-31T12:37:58.838Z,29.89
2023-05-31T12:41:03.147Z,29.45
2023-05-31T12:44:07.824Z,29.51
2023-05-31T12:47:11.159Z,28.90
2023-05-31T12:50:14.084Z,29.48
2023-05-31T12:53:17.688Z,28.25
2023-05-31T12:56:21.227Z,28.00
2023-05-31T12:59:26.168Z,28.51
2023-05-31T13:02:29.381Z,29.61
2023-05-31T13:05:32.874Z,29.87
2023-05-31T13:08:35.896Z,30.26
2023-05-31T13:11:39.658Z,30.15
2023-05-31T13:14:43.772Z,31.24
2023-05-31T13:17:47.111Z,30.82
2023-05-31T13:20:51.108Z,31.45
2023-05-31T13:23:56.172Z,32.68
2023-05-31T13:26:59.221Z,31.05
2023-05-31T13:30:04.051Z,29.91
2023-05-31T13:33:06.835Z,32.61
2023-05-31T13:36:10.471Z,33.33
2023-05-31T13:39:15.810Z,32.18
2023-05-31T13:42:19.190Z,33.08
2023-05-31T13:45:22.092Z,33.80
2023-05-31T13:48:25.277Z,32.53
2023-05-31T13:51:28.220Z,32.26
2023-05-31T13:54:31.604Z,33.08
2023-05-31T13:57:34.560Z,33.79
2023-05-31T14:00:42.838Z,33.53
2023-05-31T14:03:49.182Z,33.84
2023-05-31T14:06:52.292Z,32.31
2023-05-31T14:09:55.787Z,33.90
2023-05-31T14:12:58.749Z,32.38
2023-05-31T14:16:02.271Z,31.53
2023-05-31T14:19:06.679Z,30.78
2023-05-31T14:22:10.051Z,33.24
2023-05-31T14:25:13.860Z,33.16
2023-05-31T14:28:17.426Z,31.82
2023-05-31T14:31:20.549Z,32.27
2023-05-31T14:34:24.678Z,34.36
2023-05-31T14:37:40.716Z,33.78
2023-05-31T14:40:52.704Z,32.21
2023-05-31T14:43:55.655Z,32.80
2023-05-31T14:46:58.873Z,33.36
2023-05-31T14:50:04.894Z,32.96
2023-05-31T14:53:12.972Z,32.83
2023-05-31T14:56:18.545Z,32.63
2023-05-31T14:59:24.266Z,34.86
2023-05-31T15:02:27.397Z,35.46
2023-05-31T15:05:31.709Z,33.72
2023-05-31T15:08:36.583Z,34.89
2023-05-31T15:11:39.982Z,36.11
2023-05-31T15:14:43.848Z,35.84
2023-05-31T15:17:47.730Z,34.76
2023-05-31T15:20:51.088Z,33.75
2023-05-31T15:23:54.627Z,34.30
2023-05-31T15:26:57.691Z,34.68
2023-05-31T15:30:01.028Z,33.24
2023-05-31T15:33:04.724Z,35.65
2023-05-31T15:36:09.496Z,34.43
2023-05-31T15:39:12.982Z,33.36
2023-05-31T15:42:16.179Z,33.75
2023-05-31T15:45:19.328Z,33.68
2023-05-31T15:48:22.563Z,32.26
2023-05-31T15:51:25.405Z,31.88
2023-05-31T15:54:28.629Z,31.64
2023-05-31T15:57:31.740Z,31.13
2023-05-31T16:00:34.982Z,31.47
2023-05-31T16:03:38.085Z,33.39
2023-05-31T16:06:41.193Z,33.93
2023-05-31T16:09:44.811Z,33.41
2023-05-31T16:12:47.729Z,33.64
2023-05-31T16:15:51.284Z,31.14
2023-05-31T16:18:56.098Z,31.76
2023-05-31T16:21:59.315Z,31.90
2023-05-31T16:25:02.533Z,33.71
2023-05-31T16:28:05.858Z,34.86
2023-05-31T16:31:14.139Z,33.07
2023-05-31T16:34:18.308Z,31.94
2023-05-31T16:37:22.511Z,30.79
2023-05-31T16:40:25.674Z,30.12
2023-05-31T16:43:29.856Z,32.29
2023-05-31T16:46:33.194Z,31.65
2023-05-31T16:49:45.726Z,29.19
2023-05-31T16:52:52.917Z,30.62
2023-05-31T16:55:56.249Z,30.26
2023-05-31T16:58:59.523Z,30.06
2023-05-31T17:02:03.631Z,31.32
2023-05-31T17:05:10.000Z,29.24
2023-05-31T17:08:14.344Z,29.96
2023-05-31T17:11:17.769Z,30.78
2023-05-31T17:14:21.469Z,30.63
2023-05-31T17:17:24.831Z,30.64
2023-05-31T17:20:28.013Z,30.06
2023-05-31T17:23:31.428Z,29.78
2023-05-31T17:26:34.867Z,28.78
2023-05-31T17:29:38.044Z,28.58
2023-05-31T17:32:41.499Z,28.89
2023-05-31T17:35:45.284Z,28.46
2023-05-31T17:38:48.180Z,29.60
2023-05-31T17:41:51.509Z,29.95
2023-05-31T17:44:54.435Z,29.71
2023-05-31T17:47:57.784Z,30.03
2023-05-31T17:51:01.017Z,28.97
2023-05-31T17:54:05.054Z,29.50
2023-05-31T17:57:08.542Z,29.97
2023-05-31T18:00:11.770Z,29.68
2023-05-31T18:03:15.208Z,29.81
2023-05-31T18:06:18.210Z,29.58
2023-05-31T18:09:21.453Z,28.86
2023-05-31T18:12:24.405Z,28.59
2023-05-31T18:15:27.964Z,28.08
2023-05-31T18:18:31.126Z,27.60
2023-05-31T18:21:34.436Z,27.25
2023-05-31T18:24:37.397Z,26.81
2023-05-31T18:27:40.903Z,26.30
2023-05-31T18:30:43.888Z,25.82
2023-05-31T18:33:47.165Z,25.22
2023-05-31T18:36:50.140Z,24.74
2023-05-31T18:39:54.356Z,24.21
2023-05-31T18:42:57.267Z,23.95
2023-05-31T18:46:00.719Z,23.64
2023-05-31T18:49:03.806Z,23.41
2023-05-31T18:52:07.170Z,23.12
2023-05-31T18:55:10.146Z,22.91
2023-05-31T18:58:13.330Z,22.75
2023-05-31T19:01:17.076Z,22.59
2023-05-31T19:04:20.335Z,22.30
2023-05-31T19:07:23.514Z,22.24
2023-05-31T19:10:27.024Z,22.05
2023-05-31T19:13:30.173Z,21.88
2023-05-31T19:16:34.285Z,21.73
2023-05-31T19:19:37.593Z,21.68
2023-05-31T19:22:52.884Z,21.54
2023-05-31T19:25:56.139Z,21.46
2023-05-31T19:28:59.664Z,21.38
2023-05-31T19:32:02.626Z,21.39
2023-05-31T19:35:07.734Z,21.27
2023-05-31T19:38:11.259Z,21.13
2023-05-31T19:41:14.997Z,20.97
2023-05-31T19:44:17.941Z,20.83
2023-05-31T19:47:23.406Z,20.77
2023-05-31T19:50:27.845Z,20.64
2023-05-31T19:53:31.143Z,20.58
2023-05-31T19:56:34.323Z,20.56
2023-05-31T19:59:37.523Z,20.53
2023-05-31T20:02:40.550Z,20.54
2023-05-31T20:05:43.896Z,20.55
2023-05-31T20:08:46.875Z,20.52
2023-05-31T20:11:50.117Z,20.35
2023-05-31T20:14:53.156Z,20.15
2023-05-31T20:17:56.664Z,20.02
2023-05-31T20:20:59.614Z,19.94
2023-05-31T20:24:03.441Z,19.79
2023-05-31T20:27:08.333Z,19.73
2023-05-31T20:30:12.281Z,19.56
2023-05-31T20:33:15.582Z,19.52
2023-05-31T20:36:18.920Z,19.42
2023-05-31T20:39:22.329Z,19.34
2023-05-31T20:42:26.208Z,19.36
2023-05-31T20:45:29.158Z,19.32
2023-05-31T20:48:32.689Z,19.27
2023-05-31T20:51:35.773Z,19.28
2023-05-31T20:54:39.066Z,19.23
2023-05-31T20:57:42.496Z,19.28
2023-05-31T21:00:46.314Z,19.29
2023-05-31T21:03:49.464Z,19.24
2023-05-31T21:06:52.846Z,19.14
2023-05-31T21:09:56.767Z,19.15
2023-05-31T21:12:59.896Z,19.13
2023-05-31T21:16:03.819Z,18.88
2023-05-31T21:19:07.279Z,18.81
2023-05-31T21:22:10.260Z,18.78
2023-05-31T21:25:13.479Z,18.70
2023-05-31T21:28:17.861Z,18.62
2023-05-31T21:31:24.026Z,18.66
2023-05-31T21:34:26.959Z,18.52
2023-05-31T21:37:30.110Z,18.51
2023-05-31T21:40:33.046Z,18.43
2023-05-31T21:43:36.350Z,18.33
2023-05-31T21:46:39.351Z,18.26
2023-05-31T21:49:42.705Z,18.15
2023-05-31T21:52:45.657Z,18.04
2023-05-31T21:55:50.480Z,17.97
2023-05-31T21:58:53.475Z,18.00
2023-05-31T22:01:57.310Z,17.96
2023-05-31T22:05:00.533Z,17.77
2023-05-31T22:08:03.521Z,17.39
2023-05-31T22:11:06.875Z,17.46
2023-05-31T22:14:09.831Z,17.44
2023-05-31T22:17:14.849Z,17.40
2023-05-31T22:20:17.914Z,17.35
2023-05-31T22:23:24.712Z,17.32
2023-05-31T22:26:28.343Z,17.18
2023-05-31T22:29:31.599Z,17.12
2023-05-31T22:32:34.568Z,17.17
2023-05-31T22:35:39.137Z,17.10
2023-05-31T22:38:42.463Z,17.14
2023-05-31T22:41:45.703Z,17.17
2023-05-31T22:44:49.505Z,17.22
2023-05-31T22:47:53.295Z,17.22
2023-05-31T22:51:00.444Z,17.24
2023-05-31T22:54:03.840Z,17.22
2023-05-31T22:57:08.314Z,17.15
2023-05-31T23:00:13.165Z,17.13
2023-05-31T23:03:16.380Z,17.12
2023-05-31T23:06:21.211Z,17.09
2023-05-31T23:09:24.866Z,17.04
2023-05-31T23:12:31.901Z,17.12
2023-05-31T23:15:37.324Z,17.23
2023-05-31T23:18:41.892Z,17.35
2023-05-31T23:21:46.698Z,17.38
2023-05-31T23:24:50.044Z,17.40
2023-05-31T23:27:53.440Z,17.40
2023-05-31T23:30:56.701Z,17.39
2023-05-31T23:33:59.679Z,17.31
2023-05-31T23:37:02.963Z,17.23
2023-05-31T23:40:06.550Z,17.14
2023-05-31T23:43:09.772Z,17.09
2023-05-31T23:46:13.083Z,16.92
2023-05-31T23:49:16.926Z,16.87
2023-05-31T23:52:21.782Z,16.85
2023-05-31T23:55:25.532Z,16.77
2023-05-31T23:58:29.014Z,16.78
